Time;durP1;ratioP1;P1;durP2;ratioP2;P2;SDS_P1;SDS_P2;PMS_P1;PMS_P2;Temp;Humidity;BMP_temperature;BMP_pressure;BME280_temperature;BME280_humidity;BME280_pressure;Samples;Min_cycle;Max_cycle;Signal;HPM_P1;HPM_P2
2022/05/19 00:01:07;;;;;;;;;;;;;;;20.39;26.24;102088.75;5090334;28;20321;-51
2022/05/19 00:03:36;;;;;;;;;;;;;;;20.35;26.17;102080.09;5091976;28;19920;-49
2022/05/19 00:06:02;;;;;;;;;;;;;;;20.31;26.33;102085.81;5088326;28;20416;-51
2022/05/19 00:08:28;;;;;;;4.13;2.00;;;;;;;20.31;26.07;102086.69;5090789;28;20976;-48
2022/05/19 00:10:57;;;;;;;4.20;1.90;;;;;;;20.29;26.35;102088.63;5091744;28;20377;-48
2022/05/19 00:13:24;;;;;;;4.43;1.70;;;;;;;20.25;26.23;102085.34;5085647;28;20032;-48
2022/05/19 00:15:49;;;;;;;3.60;1.63;;;;;;;20.20;26.31;102089.31;5091192;28;20110;-50
2022/05/19 00:18:15;;;;;;;2.10;1.40;;;;;;;20.16;26.59;102082.53;5097050;28;20081;-50
2022/05/19 00:20:40;;;;;;;2.65;1.60;;;;;;;20.14;26.47;102076.44;5092732;28;20483;-49
2022/05/19 00:23:06;;;;;;;2.47;1.40;;;;;;;20.07;26.30;102079.59;5096987;28;20415;-50
2022/05/19 00:25:32;;;;;;;3.63;1.60;;;;;;;20.06;26.53;102082.38;5092867;28;20032;-49
2022/05/19 00:27:57;;;;;;;4.43;1.50;;;;;;;20.03;26.75;102077.28;5094623;28;20036;-49
2022/05/19 00:30:23;;;;;;;8.45;1.55;;;;;;;19.99;26.47;102074.00;5091083;28;20126;-48
2022/05/19 00:32:48;;;;;;;6.35;1.60;;;;;;;19.96;26.78;102079.56;5089513;28;20066;-50
2022/05/19 00:35:15;;;;;;;6.45;1.33;;;;;;;19.94;26.83;102074.34;5097703;28;20168;-49
2022/05/19 00:37:40;;;;;;;3.95;1.70;;;;;;;19.93;26.80;102071.78;5088883;28;20063;-49
2022/05/19 00:40:07;;;;;;;2.78;1.38;;;;;;;19.93;26.71;102071.78;5093797;28;20048;-49
2022/05/19 00:42:44;;;;;;;2.72;1.40;;;;;;;19.92;26.77;102070.09;5092436;28;20042;-50
2022/05/19 00:45:12;;;;;;;9.50;1.70;;;;;;;19.90;26.70;102072.00;5092355;28;20036;-49
2022/05/19 00:47:49;;;;;;;4.75;1.40;;;;;;;19.89;27.05;102065.00;5088056;28;20028;-50
2022/05/19 00:50:28;;;;;;;2.17;1.35;;;;;;;19.89;26.83;102068.50;5092891;28;20641;-50
2022/05/19 00:53:01;;;;;;;2.63;1.50;;;;;;;19.88;26.83;102073.97;5091773;28;20057;-49
2022/05/19 00:55:36;;;;;;;2.13;1.58;;;;;;;19.87;26.98;102066.94;5091407;28;20043;-50
2022/05/19 00:58:18;;;;;;;4.03;1.58;;;;;;;19.83;26.84;102065.44;5091431;28;20036;-48
2022/05/19 01:00:45;;;;;;;3.78;1.48;;;;;;;19.80;26.94;102059.34;5093138;28;20039;-50
2022/05/19 01:03:14;;;;;;;4.03;1.70;;;;;;;19.79;27.41;102064.81;5089739;28;20016;-50
2022/05/19 01:05:55;;;;;;;4.53;1.88;;;;;;;19.77;27.26;102064.91;5095214;28;20453;-52
2022/05/19 01:08:30;;;;;;;3.28;1.77;;;;;;;19.74;27.16;102061.63;5088467;28;20016;-50
2022/05/19 01:10:57;;;;;;;6.60;1.48;;;;;;;19.71;27.28;102060.06;5090846;28;20027;-49
2022/05/19 01:13:23;;;;;;;4.15;1.45;;;;;;;19.67;27.05;102061.25;5090630;28;20024;-50
2022/05/19 01:15:52;;;;;;;3.35;1.65;;;;;;;19.65;27.40;102063.19;5090926;28;20484;-50
2022/05/19 01:18:18;;;;;;;6.35;1.50;;;;;;;19.62;27.26;102060.72;5089916;28;20499;-50
2022/05/19 01:20:45;;;;;;;3.17;1.50;;;;;;;19.61;27.43;102054.56;5096231;28;20017;-49
2022/05/19 01:23:18;;;;;;;2.08;1.50;;;;;;;19.59;27.30;102052.94;5088844;28;20031;-49
2022/05/19 01:25:53;;;;;;;3.25;1.42;;;;;;;19.56;27.43;102053.22;5087167;28;20106;-50
2022/05/19 01:28:19;;;;;;;6.95;1.80;;;;;;;19.53;27.51;102053.44;5091724;28;20092;-48
2022/05/19 01:30:44;;;;;;;4.70;1.92;;;;;;;19.50;27.49;102043.84;5086111;28;20017;-51
2022/05/19 01:33:10;;;;;;;2.25;1.50;;;;;;;19.48;27.67;102046.63;5088469;28;20024;-51
2022/05/19 01:35:36;;;;;;;3.40;1.75;;;;;;;19.47;27.66;102050.25;5095374;28;20027;-49
2022/05/19 01:38:06;;;;;;;4.00;1.58;;;;;;;19.45;27.72;102046.84;5088312;28;20036;-49
2022/05/19 01:40:48;;;;;;;8.02;1.60;;;;;;;19.42;27.75;102052.44;5086143;28;20043;-48
2022/05/19 01:43:34;;;;;;;2.85;1.60;;;;;;;19.38;27.79;102058.97;5086802;28;20513;-48
2022/05/19 01:46:28;;;;;;;1.98;1.42;;;;;;;19.33;27.86;102048.63;5047038;28;20083;-49
2022/05/19 01:49:18;;;;;;;2.15;1.33;;;;;;;19.30;28.19;102056.00;5079045;28;20098;-48
2022/05/19 01:51:47;;;;;;;;;;;;;;;19.25;27.94;102060.84;5085252;28;20459;-50
2022/05/19 01:54:24;;;;;;;2.58;1.75;;;;;;;19.22;28.06;102056.56;5091479;28;19922;-53
2022/05/19 01:57:08;;;;;;;4.03;1.67;;;;;;;19.16;28.38;102057.88;5089774;28;20024;-49
2022/05/19 02:00:01;;;;;;;2.30;1.65;;;;;;;19.11;28.68;102054.69;5094477;28;20035;-49
2022/05/19 02:02:39;;;;;;;7.55;1.83;;;;;;;19.06;28.65;102051.50;5092845;28;20111;-49
2022/05/19 02:05:29;;;;;;;5.00;1.85;;;;;;;19.01;29.11;102042.97;5096098;28;20118;-49
2022/05/19 02:07:58;;;;;;;4.32;1.80;;;;;;;18.98;28.74;102048.56;5095636;28;20028;-49
2022/05/19 02:10:31;;;;;;;4.15;1.73;;;;;;;18.96;29.00;102039.81;5098293;28;20043;-47
2022/05/19 02:13:00;;;;;;;5.65;1.42;;;;;;;18.94;29.11;102042.59;5089440;28;20052;-49
2022/05/19 02:15:27;;;;;;;3.22;1.38;;;;;;;18.94;29.28;102047.03;5092177;28;20028;-49
2022/05/19 02:17:55;;;;;;;4.65;2.00;;;;;;;18.93;29.27;102040.00;5090664;28;20033;-47
2022/05/19 02:20:24;;;;;;;4.40;1.60;;;;;;;18.91;29.11;102036.59;5097373;28;20099;-49
2022/05/19 02:22:50;;;;;;;;;;;;;;;18.89;28.88;102032.22;5099158;28;20043;-48
2022/05/19 02:25:34;;;;;;;3.95;1.77;;;;;;;18.86;28.96;102037.78;5094775;28;19924;-48
2022/05/19 02:28:24;;;;;;;5.40;1.80;;;;;;;18.84;29.03;102030.84;5090419;28;20047;-49
2022/05/19 02:30:50;;;;;;;4.82;1.60;;;;;;;18.81;29.19;102031.94;5095524;28;20098;-50
2022/05/19 02:33:17;;;;;;;4.82;1.60;;;;;;;18.77;29.23;102041.13;5092031;28;20037;-49
2022/05/19 02:35:43;;;;;;;2.92;1.70;;;;;;;18.75;29.19;102037.72;5093770;28;20043;-50
2022/05/19 02:38:09;;;;;;;2.38;1.65;;;;;;;18.72;29.30;102037.91;5094244;28;20047;-50
2022/05/19 02:40:36;;;;;;;4.43;1.60;;;;;;;18.69;29.38;102043.47;5096924;28;20016;-51
2022/05/19 02:43:03;;;;;;;6.63;1.70;;;;;;;18.65;29.32;102042.84;5094308;28;20428;-53
2022/05/19 02:45:30;;;;;;;3.38;1.48;;;;;;;18.62;29.38;102037.72;5095065;28;20024;-50
2022/05/19 02:47:56;;;;;;;2.33;1.40;;;;;;;18.61;29.56;102032.50;5094488;28;20051;-51
2022/05/19 02:50:22;;;;;;;3.85;1.48;;;;;;;18.59;29.53;102038.81;5091808;28;20072;-46
2022/05/19 02:52:48;;;;;;;3.00;1.60;;;;;;;18.59;29.62;102041.47;5094918;28;20150;-50
2022/05/19 02:55:14;;;;;;;4.90;1.80;;;;;;;18.58;29.75;102037.09;5093640;28;20052;-49
2022/05/19 02:57:42;;;;;;;2.70;2.00;;;;;;;18.57;29.58;102034.56;5090114;28;20073;-50
2022/05/19 03:00:14;;;;;;;4.03;1.45;;;;;;;18.51;29.69;102035.84;5096785;28;20029;-50
2022/05/19 03:02:41;;;;;;;5.30;1.55;;;;;;;18.47;29.75;102037.03;5099068;28;20025;-50
2022/05/19 03:05:08;;;;;;;3.67;1.75;;;;;;;18.46;29.80;102029.97;5093772;28;20032;-48
2022/05/19 03:07:34;;;;;;;6.40;1.67;;;;;;;18.47;29.78;102033.50;5096983;28;20036;-49
2022/05/19 03:09:59;;;;;;;3.08;1.70;;;;;;;18.43;29.75;102035.53;5090377;28;20032;-49
2022/05/19 03:12:25;;;;;;;2.40;1.60;;;;;;;18.40;29.78;102033.06;5089684;28;20384;-50
2022/05/19 03:14:50;;;;;;;2.55;1.70;;;;;;;18.39;29.88;102037.56;5090201;28;20044;-48
2022/05/19 03:17:16;;;;;;;6.50;1.70;;;;;;;18.38;29.79;102032.31;5092283;28;20039;-49
2022/05/19 03:19:41;;;;;;;5.80;1.65;;;;;;;18.36;29.87;102032.44;5091831;28;20039;-50
2022/05/19 03:22:07;;;;;;;5.97;1.80;;;;;;;18.36;30.27;102036.94;5092021;28;20042;-49
2022/05/19 03:24:33;;;;;;;1.98;1.50;;;;;;;18.35;29.92;102032.56;5084180;28;20040;-51
2022/05/19 03:26:59;;;;;;;2.70;1.48;;;;;;;18.34;29.84;102038.84;5084781;28;20027;-49
2022/05/19 03:29:25;;;;;;;3.38;1.65;;;;;;;18.34;29.85;102031.69;5081837;28;20426;-53
2022/05/19 03:31:51;;;;;;;4.22;1.67;;;;;;;18.34;29.93;102038.84;5094595;28;20031;-48
2022/05/19 03:34:17;;;;;;;5.78;1.90;;;;;;;18.34;29.89;102036.19;5090191;28;20625;-49
2022/05/19 03:36:46;;;;;;;3.20;1.80;;;;;;;18.35;29.80;102045.88;5089533;27;20379;-50
2022/05/19 03:39:12;;;;;;;4.63;1.77;;;;;;;18.35;29.94;102051.22;5095328;28;20024;-49
2022/05/19 03:41:38;;;;;;;1.95;1.40;;;;;;;18.35;29.95;102052.06;5088243;28;20028;-49
2022/05/19 03:44:04;;;;;;;6.00;2.03;;;;;;;18.37;29.99;102054.63;5089724;28;20046;-48
2022/05/19 03:46:29;;;;;;;4.22;1.75;;;;;;;18.39;29.99;102055.34;5091450;28;20056;-52
2022/05/19 03:48:55;;;;;;;3.25;1.70;;;;;;;18.41;29.89;102061.44;5088314;28;20034;-48
2022/05/19 03:51:27;;;;;;;3.67;1.67;;;;;;;18.41;29.99;102048.97;5091310;28;20119;-49
2022/05/19 03:53:53;;;;;;;2.72;1.60;;;;;;;18.41;30.06;102045.44;5084962;28;20039;-48
2022/05/19 03:56:20;;;;;;;4.18;1.63;;;;;;;18.38;30.15;102053.63;5096034;28;20052;-51
2022/05/19 03:58:46;;;;;;;4.68;1.80;;;;;;;18.38;30.24;102056.31;5095981;28;20081;-48
2022/05/19 04:01:12;;;;;;;4.43;1.70;;;;;;;18.37;30.38;102049.31;5092014;28;20035;-49
2022/05/19 04:03:38;;;;;;;2.53;1.73;;;;;;;18.35;30.44;102046.72;5096536;28;20024;-49
2022/05/19 04:06:04;;;;;;;4.93;1.92;;;;;;;18.39;30.41;102052.69;5092302;28;20118;-49
2022/05/19 04:08:29;;;;;;;3.60;2.05;;;;;;;18.45;30.45;102046.09;5088326;28;20031;-50
2022/05/19 04:10:55;;;;;;;8.00;3.00;;;;;;;18.49;30.42;102040.44;5094884;28;20036;-49
2022/05/19 04:13:20;;;;;;;6.22;2.90;;;;;;;18.54;30.39;102040.09;5086265;28;20063;-50
2022/05/19 04:15:46;;;;;;;4.90;2.75;;;;;;;18.57;30.34;102040.72;5090187;28;20024;-51
2022/05/19 04:18:11;;;;;;;6.30;2.30;;;;;;;18.61;30.50;102037.84;5090408;28;20062;-49
2022/05/19 04:20:37;;;;;;;7.57;2.15;;;;;;;18.60;30.65;102045.00;5092332;28;20028;-49
2022/05/19 04:23:03;;;;;;;4.70;1.80;;;;;;;18.62;30.80;102042.22;5076175;28;20032;-49
2022/05/19 04:25:29;;;;;;;5.50;1.80;;;;;;;18.65;30.79;102036.69;5089592;28;20060;-47
2022/05/19 04:27:56;;;;;;;4.68;2.08;;;;;;;18.68;30.56;102033.78;5080596;28;20038;-49
2022/05/19 04:30:22;;;;;;;4.93;2.17;;;;;;;18.71;30.69;102036.22;5078798;28;20092;-50
2022/05/19 04:32:47;;;;;;;2.60;1.98;;;;;;;18.73;30.84;102043.16;5080872;28;20118;-50
2022/05/19 04:35:14;;;;;;;3.60;2.05;;;;;;;18.75;30.95;102037.72;5085638;28;20063;-52
2022/05/19 04:37:40;;;;;;;6.45;2.08;;;;;;;18.76;30.81;102036.75;5094462;28;20028;-48
2022/05/19 04:40:07;;;;;;;5.00;1.80;;;;;;;18.80;31.02;102040.91;5083369;28;20020;-49
2022/05/19 04:42:32;;;;;;;3.88;1.83;;;;;;;18.80;31.09;102032.91;5084650;28;20491;-48
2022/05/19 04:44:58;;;;;;;4.25;1.92;;;;;;;18.82;31.34;102038.97;5094828;28;20036;-49
2022/05/19 04:47:24;;;;;;;3.50;2.22;;;;;;;18.83;31.39;102040.66;5097650;28;20042;-48
2022/05/19 04:49:49;;;;;;;8.57;2.30;;;;;;;18.85;31.61;102038.72;5092569;28;20036;-49
2022/05/19 04:52:15;;;;;;;4.07;2.00;;;;;;;18.84;31.86;102045.03;5097894;28;20028;-48
2022/05/19 04:54:41;;;;;;;7.47;2.30;;;;;;;18.86;32.08;102047.59;5087892;28;20055;-48
2022/05/19 04:57:07;;;;;;;4.00;2.20;;;;;;;18.88;32.22;102043.00;5078871;28;20040;-51
2022/05/19 04:59:36;;;;;;;5.03;1.88;;;;;;;18.93;32.38;102048.00;5081593;28;20027;-51
2022/05/19 05:02:02;;;;;;;3.33;2.00;;;;;;;18.94;32.45;102047.03;5092513;28;20032;-47
2022/05/19 05:04:27;;;;;;;10.82;2.47;;;;;;;18.97;32.69;102044.19;5091642;28;20861;-49
2022/05/19 05:06:53;;;;;;;8.00;3.10;;;;;;;19.01;32.83;102046.53;5098023;28;20016;-48
2022/05/19 05:09:19;;;;;;;5.00;2.22;;;;;;;19.07;32.65;102050.53;5091428;28;20047;-48
2022/05/19 05:11:44;;;;;;;6.35;2.50;;;;;;;19.10;32.58;102047.66;5096134;28;20032;-49
2022/05/19 05:14:11;;;;;;;3.22;2.30;;;;;;;19.14;32.74;102046.44;5092238;28;20028;-49
2022/05/19 05:16:37;;;;;;;5.22;2.30;;;;;;;19.17;32.75;102048.91;5092842;28;20100;-50
2022/05/19 05:19:04;;;;;;;5.15;1.98;;;;;;;19.22;32.82;102048.56;5094984;28;20038;-51
2022/05/19 05:21:29;;;;;;;10.50;2.72;;;;;;;19.27;32.96;102042.91;5094894;28;20043;-49
2022/05/19 05:23:55;;;;;;;4.97;2.38;;;;;;;19.33;32.88;102045.09;5093643;28;20043;-47
2022/05/19 05:26:20;;;;;;;7.65;2.65;;;;;;;19.38;32.84;102053.63;5090302;28;20434;-50
2022/05/19 05:28:46;;;;;;;4.90;2.70;;;;;;;19.42;32.96;102049.75;5090040;28;20020;-50
2022/05/19 05:31:11;;;;;;;6.40;2.70;;;;;;;19.46;33.21;102043.19;5101555;28;20409;-48
2022/05/19 05:33:36;;;;;;;4.57;2.55;;;;;;;19.51;33.32;102042.88;5098487;28;20020;-49
2022/05/19 05:36:02;;;;;;;9.73;2.75;;;;;;;19.54;33.63;102039.97;5101522;28;20048;-49
2022/05/19 05:38:27;;;;;;;5.25;2.40;;;;;;;19.59;33.74;102042.28;5103732;28;20031;-49
2022/05/19 05:40:54;;;;;;;4.68;2.15;;;;;;;19.64;33.79;102042.78;5099090;28;20039;-49
2022/05/19 05:43:21;;;;;;;4.57;2.20;;;;;;;19.68;33.99;102038.94;5104534;28;20036;-52
2022/05/19 05:45:48;;;;;;;6.05;2.30;;;;;;;19.72;34.11;102037.72;5097530;28;20032;-51
2022/05/19 05:48:14;;;;;;;7.13;2.40;;;;;;;19.78;34.11;102031.91;5102421;28;20029;-50
2022/05/19 05:50:40;;;;;;;7.43;3.10;;;;;;;19.83;34.27;102025.38;5101434;28;20043;-49
2022/05/19 05:53:07;;;;;;;7.40;2.97;;;;;;;19.87;34.23;102030.38;5101785;28;20032;-48
2022/05/19 05:55:34;;;;;;;9.35;2.75;;;;;;;19.93;34.11;102029.91;5099290;28;20028;-48
2022/05/19 05:58:04;;;;;;;4.78;2.67;;;;;;;19.97;34.35;102025.19;5100223;28;20035;-50
2022/05/19 06:00:30;;;;;;;6.13;3.22;;;;;;;20.02;34.29;102031.03;5087992;28;20020;-48
2022/05/19 06:02:55;;;;;;;7.97;4.68;;;;;;;20.06;34.29;102035.13;5097383;28;20111;-49
2022/05/19 06:05:21;;;;;;;8.13;5.10;;;;;;;20.09;34.49;102034.91;5080732;28;20119;-50
2022/05/19 06:07:46;;;;;;;10.57;4.72;;;;;;;20.15;34.70;102038.06;5092341;28;20036;-48
2022/05/19 06:10:13;;;;;;;7.30;3.15;;;;;;;20.20;34.78;102038.53;5091441;28;20046;-49
2022/05/19 06:12:40;;;;;;;5.97;2.72;;;;;;;20.23;34.44;102038.31;5089328;28;20043;-48
2022/05/19 06:15:07;;;;;;;6.03;2.50;;;;;;;20.27;34.68;102030.94;5093418;28;20020;-49
2022/05/19 06:17:33;;;;;;;4.32;2.40;;;;;;;20.30;35.03;102036.88;5096156;28;20034;-49
2022/05/19 06:19:58;;;;;;;5.00;2.38;;;;;;;20.34;34.87;102038.34;5093411;28;20036;-50
2022/05/19 06:22:23;;;;;;;6.57;2.75;;;;;;;20.40;35.07;102037.00;5092246;28;20071;-51
2022/05/19 06:24:51;;;;;;;5.18;2.53;;;;;;;20.45;35.14;102033.94;5088469;28;20028;-51
2022/05/19 06:27:17;;;;;;;4.75;2.75;;;;;;;20.50;35.38;102039.75;5096895;28;20040;-48
2022/05/19 06:29:42;;;;;;;6.80;3.15;;;;;;;20.55;35.31;102042.94;5094013;28;20020;-48
2022/05/19 06:32:08;;;;;;;7.20;3.20;;;;;;;20.60;35.33;102043.44;5091835;28;20044;-49
2022/05/19 06:34:34;;;;;;;4.20;3.00;;;;;;;20.66;35.55;102036.72;5092430;28;20119;-52
2022/05/19 06:37:00;;;;;;;4.43;2.60;;;;;;;20.69;35.48;102041.84;5090344;28;20036;-50
2022/05/19 06:39:25;;;;;;;6.55;2.95;;;;;;;20.73;35.81;102037.09;5089010;28;20121;-51
2022/05/19 06:42:00;;;;;;;7.00;2.92;;;;;;;20.75;35.50;102037.81;5094278;28;20040;-50
2022/05/19 06:44:38;;;;;;;5.88;2.60;;;;;;;20.79;35.64;102036.63;5088015;28;20029;-50
2022/05/19 06:47:10;;;;;;;4.38;2.38;;;;;;;20.85;35.44;102030.75;5093724;28;20047;-51
2022/05/19 06:49:36;;;;;;;6.50;2.42;;;;;;;20.90;35.20;102023.22;5090736;28;20020;-50
2022/05/19 06:52:03;;;;;;;5.50;2.50;;;;;;;20.92;34.81;102021.28;5091328;28;20028;-49
2022/05/19 06:54:28;;;;;;;5.00;2.80;;;;;;;20.94;34.92;102019.34;5089758;28;20519;-52
2022/05/19 06:56:54;;;;;;;7.68;2.70;;;;;;;20.96;35.33;102014.69;5093119;28;20085;-51
2022/05/19 06:59:22;;;;;;;6.63;2.70;;;;;;;21.00;35.23;102013.47;5091995;28;20403;-50
2022/05/19 07:01:47;;;;;;;6.53;2.60;;;;;;;21.04;35.30;102006.03;5091345;28;20032;-49
2022/05/19 07:04:15;;;;;;;5.45;2.78;;;;;;;21.07;35.43;102003.09;5090410;28;20035;-52
2022/05/19 07:06:41;;;;;;;3.70;2.85;;;;;;;21.10;35.14;102002.00;5091980;28;20054;-49
2022/05/19 07:09:07;;;;;;;4.88;2.88;;;;;;;21.13;35.26;102004.41;5089448;28;20056;-48
2022/05/19 07:11:32;;;;;;;11.90;2.90;;;;;;;21.15;35.07;101994.44;5090165;28;20039;-49
2022/05/19 07:14:01;;;;;;;6.50;2.80;;;;;;;21.20;35.64;101997.59;5090884;28;20476;-52
2022/05/19 07:16:28;;;;;;;5.20;3.00;;;;;;;21.24;35.42;101996.34;5094203;28;20091;-48
2022/05/19 07:20:43;;;;;;;7.05;2.50;;;;;;;21.28;36.06;101994.28;5091103;28;20027;-49
2022/05/19 07:21:42;;;;;;;8.10;3.20;;;;;;;21.34;35.76;101992.91;5092413;28;20065;-52
2022/05/19 07:24:10;;;;;;;6.57;2.70;;;;;;;21.39;35.74;102001.41;5086458;28;20110;-49
2022/05/19 07:26:35;;;;;;;4.45;2.70;;;;;;;21.44;35.38;101986.66;5096520;28;20024;-48
2022/05/19 07:29:01;;;;;;;7.15;2.58;;;;;;;21.47;35.68;101988.19;5087753;28;20384;-50
2022/05/19 07:31:27;;;;;;;4.43;2.58;;;;;;;21.54;35.77;101978.69;5090472;28;20024;-49
2022/05/19 07:33:53;;;;;;;5.05;2.90;;;;;;;21.58;36.14;101982.78;5090314;28;20085;-49
2022/05/19 07:36:18;;;;;;;4.70;2.92;;;;;;;21.65;36.08;101984.97;5090073;28;20058;-53
2022/05/19 07:38:44;;;;;;;5.55;2.60;;;;;;;21.69;36.01;101973.03;5087457;28;20574;-48
2022/05/19 07:41:09;;;;;;;4.55;2.60;;;;;;;21.76;36.25;101968.81;5093753;28;20476;-49
2022/05/19 07:43:37;;;;;;;4.82;2.50;;;;;;;21.82;36.21;101965.63;5088981;28;20399;-50
2022/05/19 07:46:04;;;;;;;5.15;2.80;;;;;;;21.88;36.13;101965.06;5096025;28;20028;-49
2022/05/19 07:48:30;;;;;;;8.77;2.63;;;;;;;21.97;36.24;101970.63;5088794;28;20047;-48
2022/05/19 07:50:56;;;;;;;4.68;2.80;;;;;;;22.03;36.00;101973.63;5090654;28;20056;-48
2022/05/19 07:53:22;;;;;;;7.10;3.08;;;;;;;22.09;36.24;101969.56;5087142;28;20046;-48
2022/05/19 07:55:47;;;;;;;6.55;2.80;;;;;;;22.15;36.20;101965.47;5092633;28;20032;-49
2022/05/19 07:58:13;;;;;;;7.30;2.92;;;;;;;22.20;36.28;101964.09;5094442;28;20032;-49
2022/05/19 08:00:38;;;;;;;6.40;3.50;;;;;;;22.27;36.37;101958.19;5090897;28;20535;-48
2022/05/19 08:03:04;;;;;;;4.70;2.88;;;;;;;22.33;36.15;101965.66;5090640;28;20614;-48
2022/05/19 08:05:30;;;;;;;6.47;2.97;;;;;;;22.40;36.43;101953.44;5084455;28;20028;-48
2022/05/19 08:07:55;;;;;;;4.72;2.88;;;;;;;22.45;36.41;101967.31;5082501;28;20404;-50
2022/05/19 08:10:23;;;;;;;5.20;2.47;;;;;;;22.52;36.27;101960.41;5084370;28;20082;-49
2022/05/19 08:15:37;;;;;;;5.57;2.80;;;;;;;22.66;36.06;101951.13;5087781;28;20154;-51
2022/05/19 08:18:09;;;;;;;9.90;2.90;;;;;;;22.72;35.93;101957.75;5081256;28;20495;-49
2022/05/19 08:20:39;;;;;;;7.63;2.63;;;;;;;22.79;36.32;101945.47;5086257;28;20047;-50
2022/05/19 08:23:07;;;;;;;6.00;3.00;;;;;;;22.86;36.29;101942.22;5095547;28;20036;-48
2022/05/19 08:25:33;;;;;;;7.75;3.20;;;;;;;22.90;35.99;101944.50;5088318;28;20061;-49
2022/05/19 08:27:59;;;;;;;4.82;2.72;;;;;;;22.94;35.83;101945.91;5095100;28;20032;-49
2022/05/19 08:30:25;;;;;;;14.95;3.22;;;;;;;22.99;35.74;101948.16;5087619;28;20031;-50
2022/05/19 08:32:51;;;;;;;6.57;2.90;;;;;;;23.03;35.99;101944.22;5089100;28;20403;-51
2022/05/19 08:35:17;;;;;;;11.73;2.67;;;;;;;23.07;36.28;101956.34;5086952;28;20024;-51
2022/05/19 08:37:42;;;;;;;6.15;2.55;;;;;;;23.11;36.11;101947.03;5089123;28;20139;-50
2022/05/19 08:40:08;;;;;;;7.10;2.88;;;;;;;23.14;36.08;101946.75;5088765;28;20084;-49
2022/05/19 08:42:39;;;;;;;4.88;2.88;;;;;;;23.18;36.07;101944.63;5083932;28;20028;-49
2022/05/19 08:45:14;;;;;;;4.35;2.75;;;;;;;23.24;36.25;101945.91;5083337;28;20031;-51
2022/05/19 08:47:40;;;;;;;10.88;3.65;;;;;;;23.24;36.34;101951.28;5081209;28;20032;-52
2022/05/19 08:50:19;;;;;;;12.07;3.22;;;;;;;23.25;35.87;101952.97;5082525;28;20430;-51
2022/05/19 08:52:50;;;;;;;5.78;2.83;;;;;;;23.23;36.05;101950.44;5089273;28;20019;-49
2022/05/19 08:55:17;;;;;;;4.97;3.20;;;;;;;23.23;36.12;101944.22;5089519;28;20051;-48
2022/05/19 08:57:50;;;;;;;8.07;3.10;;;;;;;23.21;36.11;101943.53;5087059;28;20031;-48
2022/05/19 09:00:24;;;;;;;4.97;3.00;;;;;;;23.24;36.37;101940.53;5088657;28;20068;-49
2022/05/19 09:03:05;;;;;;;6.95;3.20;;;;;;;23.28;36.28;101937.44;5090193;28;20170;-48
2022/05/19 09:05:52;;;;;;;6.93;2.90;;;;;;;23.34;36.08;101930.66;5081988;28;20059;-48
2022/05/19 09:08:47;;;;;;;5.15;2.80;;;;;;;23.40;36.23;101927.38;5085835;28;20377;-52
2022/05/19 09:11:18;;;;;;;5.47;3.05;;;;;;;23.48;36.25;101917.75;5087144;28;20028;-49
2022/05/19 09:13:52;;;;;;;8.02;3.40;;;;;;;23.53;36.07;101918.16;5092613;28;20071;-49
2022/05/19 09:16:21;;;;;;;10.13;3.20;;;;;;;23.58;36.51;101922.13;5092918;28;20085;-49
2022/05/19 09:19:07;;;;;;;6.88;3.20;;;;;;;23.62;36.39;101917.28;5089784;28;20073;-49
2022/05/19 09:21:38;;;;;;;4.93;2.83;;;;;;;23.67;36.30;101909.63;5090494;28;20030;-49
2022/05/19 09:24:05;;;;;;;8.05;2.88;;;;;;;23.71;36.22;101910.19;5090297;28;20038;-48
2022/05/19 09:26:48;;;;;;;5.30;2.80;;;;;;;23.74;36.04;101908.06;5091747;28;20068;-49
2022/05/19 09:29:17;;;;;;;7.80;3.00;;;;;;;23.79;35.85;101902.22;5087660;28;20040;-49
2022/05/19 09:31:47;;;;;;;6.43;3.22;;;;;;;23.83;35.86;101908.16;5077375;28;20021;-52
2022/05/19 09:34:13;;;;;;;8.45;3.30;;;;;;;23.88;35.90;101908.56;5087227;28;20530;-53
2022/05/19 09:36:54;;;;;;;7.75;3.00;;;;;;;23.91;36.16;101905.59;5064858;28;20040;-51
2022/05/19 09:39:20;;;;;;;4.53;2.78;;;;;;;23.98;35.93;101909.38;5084436;28;20031;-48
2022/05/19 09:41:53;;;;;;;6.00;3.15;;;;;;;24.06;35.81;101908.63;5087337;28;20081;-48
2022/05/19 09:44:29;;;;;;;5.03;3.08;;;;;;;24.14;35.63;101906.06;5089976;28;20027;-48
2022/05/19 09:46:55;;;;;;;6.18;2.92;;;;;;;24.23;35.35;101904.31;5089894;28;20028;-51
2022/05/19 09:49:28;;;;;;;4.57;2.78;;;;;;;24.29;35.45;101908.25;5085489;28;20043;-49
2022/05/19 09:51:59;;;;;;;5.90;3.15;;;;;;;24.35;35.75;101900.41;5089297;28;20085;-48
2022/05/19 09:54:25;;;;;;;5.07;2.70;;;;;;;24.44;35.45;101897.78;5087960;28;20024;-48
2022/05/19 09:56:59;;;;;;;7.90;2.83;;;;;;;24.50;35.15;101900.72;5087180;28;20050;-51
2022/05/19 09:59:51;;;;;;;4.85;3.10;;;;;;;24.56;34.97;101896.59;5090768;28;20027;-49
2022/05/19 10:02:23;;;;;;;5.95;2.97;;;;;;;24.61;35.05;101896.97;5092702;28;20076;-51
2022/05/19 10:04:52;;;;;;;7.57;2.92;;;;;;;24.66;34.73;101897.34;5086197;28;20077;-49
2022/05/19 10:07:24;;;;;;;4.35;2.60;;;;;;;24.71;34.65;101901.47;5092015;28;20045;-50
2022/05/19 10:09:53;;;;;;;6.30;2.90;;;;;;;24.76;34.93;101891.06;5084656;28;20028;-52
2022/05/19 10:12:24;;;;;;;4.55;2.60;;;;;;;24.80;34.94;101887.06;5082825;28;20050;-50
2022/05/19 10:14:59;;;;;;;4.95;3.00;;;;;;;24.86;34.93;101894.53;5093985;28;20111;-49
2022/05/19 10:17:50;;;;;;;7.63;3.13;;;;;;;24.92;34.88;101885.81;5097355;27;20024;-49
2022/05/19 10:20:22;;;;;;;7.03;2.88;;;;;;;25.00;34.88;101884.22;5092698;28;20111;-49
2022/05/19 10:23:11;;;;;;;6.85;3.28;;;;;;;25.07;35.09;101887.97;5096783;28;20087;-48
2022/05/19 10:26:00;;;;;;;6.82;3.22;;;;;;;25.17;34.67;101879.78;5098321;28;20476;-50
2022/05/19 10:31:55;;;;;;;3.13;2.75;;;;;;;25.34;34.40;101873.50;5091817;28;20422;-49
2022/05/19 10:34:47;;;;;;;4.75;3.17;;;;;;;25.42;34.57;101862.78;5092662;28;20035;-49
2022/05/19 10:37:37;;;;;;;11.43;3.13;;;;;;;25.49;34.35;101863.00;5100011;28;20125;-53
2022/05/19 10:40:21;;;;;;;;;;;;;;;25.52;34.30;101856.47;5099752;28;20540;-49
2022/05/19 10:42:58;;;;;;;5.35;2.67;;;;;;;25.58;34.56;101841.50;5083728;28;20025;-49
2022/05/19 10:45:30;;;;;;;5.35;2.78;;;;;;;25.61;34.35;101839.31;5084295;28;20115;-50
2022/05/19 10:48:15;;;;;;;4.88;2.97;;;;;;;25.64;34.29;101838.16;5089852;28;20028;-49
2022/05/19 10:51:11;;;;;;;8.63;2.88;;;;;;;25.70;34.47;101832.13;5093196;28;20016;-49
2022/05/19 10:53:45;;;;;;;4.18;2.83;;;;;;;25.76;34.54;101825.22;5080173;28;20067;-50
2022/05/19 10:56:43;;;;;;;6.90;2.95;;;;;;;25.79;34.77;101824.91;5084752;28;20028;-50
2022/05/19 10:59:57;;;;;;;6.80;2.50;;;;;;;25.85;34.16;101819.69;5079514;28;20337;-51
2022/05/19 11:02:25;;;;;;;4.28;2.50;;;;;;;25.89;33.78;101808.59;5063226;28;20495;-51
2022/05/19 11:05:05;;;;;;;7.45;2.83;;;;;;;25.92;33.94;101806.41;5089500;28;20498;-50
2022/05/19 11:07:41;;;;;;;4.88;2.60;;;;;;;25.97;33.84;101808.59;5096396;28;20020;-51
2022/05/19 11:10:24;;;;;;;6.00;3.03;;;;;;;26.03;33.90;101800.69;5095360;28;20130;-51
2022/05/19 11:13:25;;;;;;;6.68;4.60;;;;;;;26.10;33.39;101806.28;5084014;28;20020;-49
2022/05/19 11:16:44;;;;;;;8.20;4.47;;;;;;;26.13;33.38;101792.50;5064272;28;20039;-48
2022/05/19 11:19:32;;;;;;;7.25;3.00;;;;;;;26.22;33.17;101789.81;5051780;28;20047;-49
2022/05/19 11:22:22;;;;;;;5.82;2.90;;;;;;;26.26;33.03;101785.75;5079251;28;20035;-52
2022/05/19 11:27:48;;;;;;;5.97;3.22;;;;;;;26.34;32.83;101780.38;5086958;28;20047;-52
2022/05/19 11:30:19;;;;;;;6.00;3.10;;;;;;;26.36;32.90;101778.38;5085973;28;20530;-49
2022/05/19 11:32:50;;;;;;;5.47;2.78;;;;;;;26.38;32.69;101767.38;5086312;28;21028;-49
2022/05/19 11:35:30;;;;;;;6.03;2.78;;;;;;;26.39;32.56;101767.25;5085331;28;20036;-53
2022/05/19 11:38:37;;;;;;;4.85;2.70;;;;;;;26.42;32.42;101761.47;5086532;28;20049;-50
2022/05/19 11:41:16;;;;;;;4.10;2.92;;;;;;;26.45;32.44;101763.84;5077592;28;20060;-50
2022/05/19 11:43:52;;;;;;;3.03;2.50;;;;;;;26.46;32.51;101749.34;5087996;28;20024;-49
2022/05/19 11:46:25;;;;;;;6.00;2.80;;;;;;;26.52;32.20;101758.63;5091190;28;20458;-49
2022/05/19 11:55:15;;;;;;;6.50;2.90;;;;;;;26.61;32.14;101749.50;5086581;28;20050;-51
2022/05/19 11:57:52;;;;;;;6.93;2.70;;;;;;;26.66;32.43;101740.91;5067306;28;20023;-50